Time;durP1;ratioP1;P1;durP2;ratioP2;P2;SDS_P1;SDS_P2;PMS_P1;PMS_P2;Temp;Humidity;BMP_temperature;BMP_pressure;BME280_temperature;BME280_humidity;BME280_pressure;Samples;Min_cycle;Max_cycle;Signal;HPM_P1;HPM_P2
2021/06/12 20:18:28;;;;;;;3.10;2.90;;;;;;;12.46;95.03;92800.81;1835069;78;27521;-81
2021/06/12 20:20:55;;;;;;;3.95;3.60;;;;;;;12.35;95.05;92792.25;1833909;77;21004;-79
2021/06/12 20:23:22;;;;;;;6.20;3.60;;;;;;;12.30;95.63;92789.27;1823490;77;21547;-78
2021/06/12 20:25:53;;;;;;;3.47;3.10;;;;;;;12.34;96.26;92786.64;1844484;77;21120;-81
2021/06/12 20:28:18;;;;;;;3.15;2.85;;;;;;;12.36;95.56;92791.66;1826276;77;21023;-79
2021/06/12 20:30:44;;;;;;;3.22;2.87;;;;;;;12.32;94.56;92790.96;1838382;77;21076;-78
2021/06/12 20:33:11;;;;;;;4.45;2.77;;;;;;;12.24;94.30;92791.70;1825869;77;21062;-79
2021/06/12 20:35:39;;;;;;;5.28;2.67;;;;;;;12.08;94.47;92791.05;1817043;77;21634;-78
2021/06/12 20:38:05;;;;;;;8.95;4.08;;;;;;;12.00;95.04;92784.78;1795368;79;21097;-80
2021/06/12 20:40:32;;;;;;;8.50;3.75;;;;;;;11.95;95.47;92795.58;1804315;79;21042;-76
2021/06/12 20:42:58;;;;;;;3.95;2.75;;;;;;;11.96;95.60;92789.53;1801010;78;21065;-78
2021/06/12 20:45:25;;;;;;;5.95;3.55;;;;;;;11.95;95.71;92785.27;1810580;78;21634;-79
2021/06/12 20:47:54;;;;;;;7.75;3.00;;;;;;;11.92;95.74;92784.14;1812191;78;21586;-80
2021/06/12 20:50:24;;;;;;;2.85;2.65;;;;;;;11.91;95.90;92790.79;1738219;80;21068;-78
2021/06/12 20:52:55;;;;;;;5.70;3.37;;;;;;;11.93;95.53;92788.43;1778692;79;21140;-81
2021/06/12 20:55:24;;;;;;;3.75;3.08;;;;;;;11.84;95.48;92790.92;1785906;79;21069;-77
2021/06/12 20:57:51;;;;;;;6.42;3.75;;;;;;;11.70;96.22;92787.06;1794115;79;21040;-79
2021/06/12 21:00:18;;;;;;;4.47;3.42;;;;;;;11.59;97.57;92780.47;1798929;78;21092;-79
2021/06/12 21:02:45;;;;;;;5.45;3.50;;;;;;;11.59;96.90;92783.20;1795320;77;21322;-80
2021/06/12 21:05:13;;;;;;;4.22;3.67;;;;;;;11.57;97.67;92788.28;1805971;78;21097;-81
2021/06/12 21:07:43;;;;;;;4.10;3.40;;;;;;;11.55;97.20;92779.77;1786901;78;21093;-81
2021/06/12 21:10:16;;;;;;;4.80;4.25;;;;;;;11.53;96.93;92778.80;1743093;78;21547;-80
2021/06/12 21:12:48;;;;;;;5.55;3.15;;;;;;;11.48;97.31;92785.34;1794053;77;21086;-79
2021/06/12 21:15:18;;;;;;;10.13;4.28;;;;;;;11.44;96.85;92779.95;1828043;77;21120;-81
2021/06/12 21:17:45;;;;;;;8.58;4.00;;;;;;;11.41;97.09;92777.45;1764674;80;21089;-80
2021/06/12 21:20:12;;;;;;;8.93;4.25;;;;;;;11.42;97.38;92779.59;1775962;77;21077;-80
2021/06/12 21:22:41;;;;;;;3.75;3.42;;;;;;;11.45;97.36;92778.77;1819433;76;21073;-80
2021/06/12 21:25:10;;;;;;;5.53;3.08;;;;;;;11.45;96.87;92776.64;1742687;80;21015;-82
2021/06/12 21:27:36;;;;;;;5.67;3.00;;;;;;;11.43;96.41;92763.42;1811089;77;21041;-81
2021/06/12 21:30:04;;;;;;;4.22;3.58;;;;;;;11.32;96.38;92770.44;1817849;77;21062;-84
2021/06/12 21:32:31;;;;;;;5.97;3.50;;;;;;;11.26;96.47;92765.28;1788440;78;21504;-78
2021/06/12 21:34:57;;;;;;;6.08;3.80;;;;;;;11.23;97.39;92768.06;1753187;80;20945;-81
2021/06/12 21:37:31;;;;;;;5.40;3.60;;;;;;;11.22;98.21;92764.58;1785722;79;21128;-77
2021/06/12 21:39:57;;;;;;;5.62;3.80;;;;;;;11.19;97.50;92755.88;1785187;80;21292;-82
2021/06/12 21:42:24;;;;;;;5.25;3.65;;;;;;;11.11;97.67;92755.22;1786539;80;21049;-80
2021/06/12 21:44:50;;;;;;;8.63;3.55;;;;;;;11.07;98.13;92740.15;1764064;80;21595;-79
2021/06/12 21:47:17;;;;;;;6.55;4.05;;;;;;;11.01;97.71;92745.28;1784654;80;21501;-80
2021/06/12 21:49:43;;;;;;;7.05;3.70;;;;;;;10.96;98.74;92742.27;1790070;80;21050;-79
2021/06/12 21:52:10;;;;;;;4.65;3.40;;;;;;;10.93;99.10;92737.83;1779630;78;21460;-81
2021/06/12 21:54:37;;;;;;;5.97;3.35;;;;;;;10.95;99.05;92742.88;1797447;79;21523;-79
2021/06/12 21:57:15;;;;;;;6.08;3.33;;;;;;;10.93;98.77;92726.18;1808665;78;21034;-80
2021/06/12 21:59:37;;;;;;;6.47;3.40;;;;;;;10.89;98.61;92734.39;1840680;76;21022;-80
2021/06/12 22:02:05;;;;;;;7.78;3.77;;;;;;;10.89;97.90;92726.23;1755931;79;21899;-81
2021/06/12 22:04:31;;;;;;;10.32;4.55;;;;;;;10.89;97.91;92731.67;1775567;80;21561;-79
2021/06/12 22:06:58;;;;;;;7.80;4.03;;;;;;;10.88;97.71;92730.14;1820191;77;21006;-80
2021/06/12 22:09:26;;;;;;;8.90;4.50;;;;;;;10.86;97.45;92731.14;1812551;77;21643;-81
2021/06/12 22:11:53;;;;;;;6.85;4.95;;;;;;;10.82;97.60;92710.03;1774780;79;21124;-80
2021/06/12 22:14:20;;;;;;;6.45;3.85;;;;;;;10.82;98.28;92716.83;1743390;82;21043;-79
2021/06/12 22:16:46;;;;;;;4.30;3.90;;;;;;;10.77;97.98;92696.91;1831003;77;22230;-81
2021/06/12 22:19:17;;;;;;;5.65;4.50;;;;;;;10.73;98.18;92698.16;1792530;75;21089;-81
2021/06/12 22:21:46;;;;;;;5.70;4.45;;;;;;;10.70;98.26;92709.27;1774901;79;21038;-82
2021/06/12 22:24:27;;;;;;;9.98;5.05;;;;;;;10.63;99.21;92684.31;1761780;77;21009;-79
2021/06/12 22:26:53;;;;;;;;;;;;;;;10.65;99.50;92681.19;1834154;75;21014;-78
2021/06/12 22:29:20;;;;;;;7.45;3.90;;;;;;;10.68;99.32;92677.63;1775865;79;22196;-80
2021/06/12 22:31:47;;;;;;;6.10;4.67;;;;;;;10.65;98.98;92673.03;1838641;77;20920;-80
2021/06/12 22:34:14;;;;;;;4.78;4.25;;;;;;;10.62;98.91;92663.75;1797365;77;21078;-82
2021/06/12 22:36:41;;;;;;;7.30;5.00;;;;;;;10.62;98.99;92658.91;1811374;77;21605;-81
2021/06/12 22:39:16;;;;;;;5.12;4.42;;;;;;;10.62;99.33;92652.87;1840693;77;21077;-79
2021/06/12 22:41:52;;;;;;;5.55;4.60;;;;;;;10.62;99.38;92658.91;1740573;78;21591;-80
2021/06/12 22:44:29;;;;;;;4.92;4.42;;;;;;;10.63;99.21;92658.48;1718079;81;21075;-80
2021/06/12 22:46:57;;;;;;;6.62;4.78;;;;;;;10.61;98.89;92647.27;1811153;78;21580;-83
2021/06/12 22:49:38;;;;;;;7.65;4.05;;;;;;;10.59;99.17;92639.34;1817180;77;20995;-80
2021/06/12 22:52:14;;;;;;;5.92;4.45;;;;;;;10.57;99.74;92641.13;1752569;80;21568;-79
2021/06/12 22:54:40;;;;;;;6.58;5.47;;;;;;;10.56;99.44;92634.72;1788307;78;21109;-83
2021/06/12 22:57:07;;;;;;;7.45;4.12;;;;;;;10.55;99.31;92622.32;1830553;77;20992;-82
2021/06/12 22:59:35;;;;;;;6.83;4.40;;;;;;;10.51;99.06;92621.02;1818331;77;20968;-80
2021/06/12 23:02:02;;;;;;;4.92;4.22;;;;;;;10.52;99.33;92621.78;1832686;77;21031;-84
2021/06/12 23:04:31;;;;;;;6.00;4.90;;;;;;;10.52;99.25;92627.22;1845013;77;21057;-80
2021/06/12 23:07:03;;;;;;;9.50;5.25;;;;;;;10.51;99.32;92617.53;1839793;76;21331;-82
2021/06/12 23:09:33;;;;;;;7.00;4.85;;;;;;;10.49;99.54;92616.57;1812545;77;21098;-81
2021/06/12 23:12:00;;;;;;;9.13;5.72;;;;;;;10.47;99.85;92613.52;1791746;76;21215;-83
2021/06/12 23:14:27;;;;;;;6.80;5.17;;;;;;;10.48;99.96;92608.25;1856867;75;21484;-79
2021/06/12 23:16:53;;;;;;;5.17;4.67;;;;;;;10.50;99.69;92610.57;1784518;76;20999;-82
2021/06/12 23:19:20;;;;;;;7.05;4.80;;;;;;;10.45;99.39;92598.99;1826792;77;21179;-80
2021/06/12 23:21:49;;;;;;;6.97;5.08;;;;;;;10.41;99.59;92596.89;1832639;77;21564;-85
2021/06/12 23:24:21;;;;;;;7.08;4.97;;;;;;;10.37;99.52;92587.27;1788620;78;20974;-80
2021/06/12 23:26:55;;;;;;;6.97;5.33;;;;;;;10.33;99.60;92588.69;1846648;75;21034;-81
2021/06/12 23:29:21;;;;;;;8.33;5.28;;;;;;;10.27;99.54;92572.70;1809805;78;21038;-80
2021/06/12 23:31:48;;;;;;;5.60;4.67;;;;;;;10.22;99.90;92582.63;1844996;75;21105;-83
2021/06/12 23:34:15;;;;;;;6.85;5.62;;;;;;;10.19;100.00;92568.50;1838679;77;20997;-80
2021/06/12 23:36:43;;;;;;;6.55;4.85;;;;;;;10.20;100.00;92570.06;1811017;77;21053;-82
2021/06/12 23:39:12;;;;;;;6.28;5.10;;;;;;;10.22;100.00;92564.97;1775858;79;21185;-83
2021/06/12 23:41:46;;;;;;;5.87;4.50;;;;;;;10.24;100.00;92563.22;1719556;82;21058;-84
2021/06/12 23:44:31;;;;;;;5.20;4.12;;;;;;;10.28;100.00;92557.92;1819049;77;21077;-82
2021/06/12 23:47:00;;;;;;;4.67;4.17;;;;;;;10.32;100.00;92549.12;1782230;77;21073;-80
2021/06/12 23:49:27;;;;;;;4.05;3.65;;;;;;;10.35;99.81;92560.52;1776252;78;21525;-79
2021/06/12 23:51:53;;;;;;;5.20;3.33;;;;;;;10.37;99.95;92545.16;1805191;77;21252;-79
2021/06/12 23:54:19;;;;;;;6.55;4.00;;;;;;;10.41;100.00;92538.47;1840826;75;20967;-82
2021/06/12 23:56:46;;;;;;;9.23;4.33;;;;;;;10.44;100.00;92544.44;1829392;77;21521;-83
2021/06/12 23:59:16;;;;;;;5.25;4.10;;;;;;;10.51;100.00;92534.63;1834665;76;21034;-82
